weather.gov     
National Weather Service

Terminal Aerodrome Forecast
NWS Homepage
This page is being discontinued on March 12, 2014.
The same data is available at this site. Please update your bookmarks.
Thank you, and we apologize for the inconvenience.
Please send an email to SR-SRH.Webmaster@noaa.gov with any concerns.


Current Version
Previous Version:    01  02  03  04  05  06  07  08  09  10  11  12  13  14  15  16  17  18  19  20  21  22  23  24  25  26  27  28  29  30  
   31  32  33  34  35  36  37  38  39  40  41  42  43  
[Printable]
708
FTUS46 KPQR 240637 AAA
TAFHIO
TAF AMD
KHIO 240637Z 2407/2506 16010G18KT 5SM RA BR SCT017 OVC025
     FM241100 19012G22KT P6SM SHRA BKN015 OVC025
     FM241400 22010G18KT P6SM -SHRA BKN025 OVC045
      TEMPO 2421/2501 SCT025 BKN040
     FM250100 22005KT P6SM VCSH SCT025 BKN040 BKN060=


708
FTUS46 KPQR 240637 AAA
TAFHIO
TAF AMD
KHIO 240637Z 2407/2506 16010G18KT 5SM RA BR SCT017 OVC025
     FM241100 19012G22KT P6SM SHRA BKN015 OVC025
     FM241400 22010G18KT P6SM -SHRA BKN025 OVC045
      TEMPO 2421/2501 SCT025 BKN040
     FM250100 22005KT P6SM VCSH SCT025 BKN040 BKN060=




U.S. Dept. of Commerce
NOAA National Weather Service
1325 East West Highway
Silver Spring, MD 20910
E-mail: w-nws.webmaster@noaa.gov
Page last modified: May 16, 2007
NATIONAL WEATHER SERVICE: for Safety, for Work, for Fun - FOR LIFE